sensor_id;sensor_type;location;lat;lon;timestamp;temperature;humidity
26479;DHT22;14163;-26.142;27.992;2022-12-29T12:52:17;21.10;99.90
26479;DHT22;14163;-26.142;27.992;2022-12-29T12:54:55;21.80;99.90
26479;DHT22;14163;-26.142;27.992;2022-12-29T12:57:30;22.50;99.90
26479;DHT22;14163;-26.142;27.992;2022-12-29T13:00:03;23.00;99.90
26479;DHT22;14163;-26.142;27.992;2022-12-29T13:02:39;23.50;99.90
26479;DHT22;14163;-26.142;27.992;2022-12-29T13:05:13;23.90;99.90
26479;DHT22;14163;-26.142;27.992;2022-12-29T13:07:46;24.20;99.90
26479;DHT22;14163;-26.142;27.992;2022-12-29T13:10:24;24.30;99.90
26479;DHT22;14163;-26.142;27.992;2022-12-29T13:12:55;24.50;99.90
26479;DHT22;14163;-26.142;27.992;2022-12-29T13:15:31;24.60;99.90
26479;DHT22;14163;-26.142;27.992;2022-12-29T13:18:02;24.70;99.90
26479;DHT22;14163;-26.142;27.992;2022-12-29T13:20:35;24.70;99.90
26479;DHT22;14163;-26.142;27.992;2022-12-29T13:23:08;24.80;99.90
26479;DHT22;14163;-26.142;27.992;2022-12-29T13:25:40;24.80;99.90
26479;DHT22;14163;-26.142;27.992;2022-12-29T13:28:10;24.80;99.90
26479;DHT22;14163;-26.142;27.992;2022-12-29T13:30:44;24.90;99.90
26479;DHT22;14163;-26.142;27.992;2022-12-29T13:33:16;25.20;99.90
26479;DHT22;14163;-26.142;27.992;2022-12-29T13:35:53;25.30;99.90
26479;DHT22;14163;-26.142;27.992;2022-12-29T13:38:25;25.40;99.90
26479;DHT22;14163;-26.142;27.992;2022-12-29T13:40:59;25.30;99.90
26479;DHT22;14163;-26.142;27.992;2022-12-29T13:43:28;25.10;99.90
26479;DHT22;14163;-26.142;27.992;2022-12-29T13:45:58;25.20;99.90
26479;DHT22;14163;-26.142;27.992;2022-12-29T13:48:29;25.50;99.90
26479;DHT22;14163;-26.142;27.992;2022-12-29T13:51:03;25.60;99.90
26479;DHT22;14163;-26.142;27.992;2022-12-29T13:53:36;25.70;99.90
26479;DHT22;14163;-26.142;27.992;2022-12-29T13:56:07;25.60;99.90
26479;DHT22;14163;-26.142;27.992;2022-12-29T13:58:41;25.70;99.90
26479;DHT22;14163;-26.142;27.992;2022-12-29T14:01:12;25.80;99.90
26479;DHT22;14163;-26.142;27.992;2022-12-29T14:03:47;25.80;99.90
26479;DHT22;14163;-26.142;27.992;2022-12-29T14:06:20;25.80;99.90
26479;DHT22;14163;-26.142;27.992;2022-12-29T14:08:51;25.70;99.90
26479;DHT22;14163;-26.142;27.992;2022-12-29T14:11:21;25.70;99.90
26479;DHT22;14163;-26.142;27.992;2022-12-29T14:13:50;25.00;99.90
26479;DHT22;14163;-26.142;27.992;2022-12-29T14:16:26;25.80;99.90
26479;DHT22;14163;-26.142;27.992;2022-12-29T14:18:55;25.80;99.90
26479;DHT22;14163;-26.142;27.992;2022-12-29T14:21:32;26.00;99.90
26479;DHT22;14163;-26.142;27.992;2022-12-29T14:26:46;26.30;99.90
26479;DHT22;14163;-26.142;27.992;2022-12-29T14:32:01;26.50;99.90
26479;DHT22;14163;-26.142;27.992;2022-12-29T14:34:33;26.60;99.90
26479;DHT22;14163;-26.142;27.992;2022-12-29T14:37:14;26.70;99.90
26479;DHT22;14163;-26.142;27.992;2022-12-29T14:39:49;26.70;99.90
26479;DHT22;14163;-26.142;27.992;2022-12-29T14:42:31;26.70;99.90
26479;DHT22;14163;-26.142;27.992;2022-12-29T14:45:00;26.90;99.90
26479;DHT22;14163;-26.142;27.992;2022-12-29T14:47:31;26.90;99.90
26479;DHT22;14163;-26.142;27.992;2022-12-29T14:50:03;26.90;99.90
26479;DHT22;14163;-26.142;27.992;2022-12-29T14:52:31;27.10;99.90
26479;DHT22;14163;-26.142;27.992;2022-12-29T14:55:03;27.30;99.90
26479;DHT22;14163;-26.142;27.992;2022-12-29T14:57:57;27.10;99.90
26479;DHT22;14163;-26.142;27.992;2022-12-29T15:00:27;27.10;99.90
26479;DHT22;14163;-26.142;27.992;2022-12-29T15:03:02;27.30;99.90
26479;DHT22;14163;-26.142;27.992;2022-12-29T15:05:36;27.30;99.90
26479;DHT22;14163;-26.142;27.992;2022-12-29T15:08:06;27.20;99.90
26479;DHT22;14163;-26.142;27.992;2022-12-29T15:10:37;27.40;99.90
26479;DHT22;14163;-26.142;27.992;2022-12-29T15:13:16;27.40;99.90
26479;DHT22;14163;-26.142;27.992;2022-12-29T15:15:45;27.50;99.90
26479;DHT22;14163;-26.142;27.992;2022-12-29T15:18:18;27.40;99.90
26479;DHT22;14163;-26.142;27.992;2022-12-29T15:20:50;27.50;99.90
26479;DHT22;14163;-26.142;27.992;2022-12-29T15:23:20;27.40;99.90
26479;DHT22;14163;-26.142;27.992;2022-12-29T15:25:50;27.40;99.90
26479;DHT22;14163;-26.142;27.992;2022-12-29T15:28:22;27.40;99.90
26479;DHT22;14163;-26.142;27.992;2022-12-29T15:30:54;27.40;99.90
26479;DHT22;14163;-26.142;27.992;2022-12-29T15:33:23;27.30;99.90
26479;DHT22;14163;-26.142;27.992;2022-12-29T15:35:51;27.30;99.90
26479;DHT22;14163;-26.142;27.992;2022-12-29T15:38:21;27.20;99.90
26479;DHT22;14163;-26.142;27.992;2022-12-29T15:40:52;27.20;99.90
26479;DHT22;14163;-26.142;27.992;2022-12-29T15:43:29;27.10;99.90
26479;DHT22;14163;-26.142;27.992;2022-12-29T15:46:01;27.20;99.90
26479;DHT22;14163;-26.142;27.992;2022-12-29T15:48:29;27.30;99.90
26479;DHT22;14163;-26.142;27.992;2022-12-29T15:50:58;27.40;99.90
26479;DHT22;14163;-26.142;27.992;2022-12-29T15:53:28;27.40;99.90
26479;DHT22;14163;-26.142;27.992;2022-12-29T15:55:59;27.40;99.90
26479;DHT22;14163;-26.142;27.992;2022-12-29T15:58:30;27.40;99.90
26479;DHT22;14163;-26.142;27.992;2022-12-29T16:01:00;27.30;99.90
26479;DHT22;14163;-26.142;27.992;2022-12-29T16:03:31;27.30;99.90
26479;DHT22;14163;-26.142;27.992;2022-12-29T16:06:06;27.20;99.90
26479;DHT22;14163;-26.142;27.992;2022-12-29T16:08:36;27.20;99.90
26479;DHT22;14163;-26.142;27.992;2022-12-29T16:11:07;27.30;99.90
26479;DHT22;14163;-26.142;27.992;2022-12-29T16:13:47;27.20;99.90
26479;DHT22;14163;-26.142;27.992;2022-12-29T16:16:16;27.20;99.90
26479;DHT22;14163;-26.142;27.992;2022-12-29T16:18:46;27.10;99.90
26479;DHT22;14163;-26.142;27.992;2022-12-29T16:21:16;27.10;99.90
26479;DHT22;14163;-26.142;27.992;2022-12-29T16:23:46;27.10;99.90
26479;DHT22;14163;-26.142;27.992;2022-12-29T16:26:16;27.00;99.90
26479;DHT22;14163;-26.142;27.992;2022-12-29T16:28:47;27.00;99.90
26479;DHT22;14163;-26.142;27.992;2022-12-29T16:31:18;27.00;99.90
26479;DHT22;14163;-26.142;27.992;2022-12-29T16:33:48;27.00;99.90
26479;DHT22;14163;-26.142;27.992;2022-12-29T16:36:23;26.90;99.90
26479;DHT22;14163;-26.142;27.992;2022-12-29T16:39:02;26.90;99.90
26479;DHT22;14163;-26.142;27.992;2022-12-29T16:41:30;26.90;99.90
26479;DHT22;14163;-26.142;27.992;2022-12-29T16:44:13;26.90;99.90
26479;DHT22;14163;-26.142;27.992;2022-12-29T16:46:55;26.80;99.90
26479;DHT22;14163;-26.142;27.992;2022-12-29T16:49:24;26.80;99.90
26479;DHT22;14163;-26.142;27.992;2022-12-29T16:51:53;26.80;99.90
26479;DHT22;14163;-26.142;27.992;2022-12-29T16:54:23;26.70;99.90
26479;DHT22;14163;-26.142;27.992;2022-12-29T16:56:52;26.70;99.90
26479;DHT22;14163;-26.142;27.992;2022-12-29T16:59:27;26.70;99.90
26479;DHT22;14163;-26.142;27.992;2022-12-29T17:01:59;26.70;99.90
26479;DHT22;14163;-26.142;27.992;2022-12-29T17:04:29;26.70;99.90
26479;DHT22;14163;-26.142;27.992;2022-12-29T17:06:57;26.70;99.90
26479;DHT22;14163;-26.142;27.992;2022-12-29T17:09:26;26.60;99.90
26479;DHT22;14163;-26.142;27.992;2022-12-29T17:11:55;26.60;99.90
26479;DHT22;14163;-26.142;27.992;2022-12-29T17:14:33;26.50;99.90
26479;DHT22;14163;-26.142;27.992;2022-12-29T17:17:03;26.40;99.90
26479;DHT22;14163;-26.142;27.992;2022-12-29T17:19:32;26.40;99.90
26479;DHT22;14163;-26.142;27.992;2022-12-29T17:22:01;26.40;99.90
26479;DHT22;14163;-26.142;27.992;2022-12-29T17:24:29;26.40;99.90
26479;DHT22;14163;-26.142;27.992;2022-12-29T17:26:58;26.40;99.90
26479;DHT22;14163;-26.142;27.992;2022-12-29T17:29:29;26.40;99.90
26479;DHT22;14163;-26.142;27.992;2022-12-29T17:32:00;26.40;99.90
26479;DHT22;14163;-26.142;27.992;2022-12-29T17:34:29;26.30;99.90
26479;DHT22;14163;-26.142;27.992;2022-12-29T17:36:58;26.30;99.90
26479;DHT22;14163;-26.142;27.992;2022-12-29T17:39:27;26.30;99.90
26479;DHT22;14163;-26.142;27.992;2022-12-29T17:41:55;26.20;99.90
26479;DHT22;14163;-26.142;27.992;2022-12-29T17:44:27;26.20;99.90
26479;DHT22;14163;-26.142;27.992;2022-12-29T17:46:55;26.10;99.90
26479;DHT22;14163;-26.142;27.992;2022-12-29T17:49:26;26.10;99.90
26479;DHT22;14163;-26.142;27.992;2022-12-29T17:51:55;26.00;99.90
26479;DHT22;14163;-26.142;27.992;2022-12-29T17:54:24;25.90;99.90
26479;DHT22;14163;-26.142;27.992;2022-12-29T17:56:53;25.90;99.90
26479;DHT22;14163;-26.142;27.992;2022-12-29T17:59:22;25.90;99.90
26479;DHT22;14163;-26.142;27.992;2022-12-29T20:08:50;20.60;99.90
26479;DHT22;14163;-26.142;27.992;2022-12-29T20:11:18;20.40;99.90
26479;DHT22;14163;-26.142;27.992;2022-12-29T20:13:47;21.00;99.90
26479;DHT22;14163;-26.142;27.992;2022-12-29T20:16:15;21.70;99.90
26479;DHT22;14163;-26.142;27.992;2022-12-29T20:18:44;22.40;99.90
26479;DHT22;14163;-26.142;27.992;2022-12-29T20:21:13;23.00;99.90
26479;DHT22;14163;-26.142;27.992;2022-12-29T20:23:42;23.30;99.90
26479;DHT22;14163;-26.142;27.992;2022-12-29T20:26:13;23.70;99.90
26479;DHT22;14163;-26.142;27.992;2022-12-29T20:28:44;23.90;99.90
26479;DHT22;14163;-26.142;27.992;2022-12-29T20:31:14;24.10;99.90
26479;DHT22;14163;-26.142;27.992;2022-12-29T20:33:43;24.20;99.90
26479;DHT22;14163;-26.142;27.992;2022-12-29T20:36:12;24.30;99.90
26479;DHT22;14163;-26.142;27.992;2022-12-29T20:38:41;24.30;99.90
26479;DHT22;14163;-26.142;27.992;2022-12-29T20:41:09;24.30;99.90
26479;DHT22;14163;-26.142;27.992;2022-12-29T20:43:40;24.40;99.90
26479;DHT22;14163;-26.142;27.992;2022-12-29T20:46:08;24.40;99.90
26479;DHT22;14163;-26.142;27.992;2022-12-29T20:48:39;24.50;99.90
26479;DHT22;14163;-26.142;27.992;2022-12-29T20:51:07;24.60;99.90
26479;DHT22;14163;-26.142;27.992;2022-12-29T20:53:36;24.50;99.90
26479;DHT22;14163;-26.142;27.992;2022-12-29T20:56:06;24.40;99.90
26479;DHT22;14163;-26.142;27.992;2022-12-29T20:58:34;24.50;99.90
26479;DHT22;14163;-26.142;27.992;2022-12-29T21:01:08;24.40;99.90
26479;DHT22;14163;-26.142;27.992;2022-12-29T21:03:38;24.40;99.90
26479;DHT22;14163;-26.142;27.992;2022-12-29T21:06:06;24.40;99.90
26479;DHT22;14163;-26.142;27.992;2022-12-29T21:08:35;24.40;99.90
26479;DHT22;14163;-26.142;27.992;2022-12-29T21:11:03;24.30;99.90
26479;DHT22;14163;-26.142;27.992;2022-12-29T21:13:32;24.30;99.90
26479;DHT22;14163;-26.142;27.992;2022-12-29T21:16:01;24.30;99.90
26479;DHT22;14163;-26.142;27.992;2022-12-29T21:18:32;24.30;99.90
26479;DHT22;14163;-26.142;27.992;2022-12-29T21:21:01;24.30;99.90
26479;DHT22;14163;-26.142;27.992;2022-12-29T21:23:30;24.20;99.90
26479;DHT22;14163;-26.142;27.992;2022-12-29T21:25:59;24.20;99.90
26479;DHT22;14163;-26.142;27.992;2022-12-29T21:28:27;24.20;99.90
26479;DHT22;14163;-26.142;27.992;2022-12-29T21:30:55;24.20;99.90
26479;DHT22;14163;-26.142;27.992;2022-12-29T21:33:35;24.30;99.90
26479;DHT22;14163;-26.142;27.992;2022-12-29T21:36:04;24.30;99.90
26479;DHT22;14163;-26.142;27.992;2022-12-29T21:38:33;24.30;99.90
26479;DHT22;14163;-26.142;27.992;2022-12-29T21:41:05;24.30;99.90
26479;DHT22;14163;-26.142;27.992;2022-12-29T21:43:34;24.20;99.90
26479;DHT22;14163;-26.142;27.992;2022-12-29T21:46:03;24.20;99.90
26479;DHT22;14163;-26.142;27.992;2022-12-29T21:48:31;24.20;99.90
26479;DHT22;14163;-26.142;27.992;2022-12-29T21:51:06;24.20;99.90
26479;DHT22;14163;-26.142;27.992;2022-12-29T21:53:54;24.30;99.90
26479;DHT22;14163;-26.142;27.992;2022-12-29T21:56:42;24.20;99.90
26479;DHT22;14163;-26.142;27.992;2022-12-29T21:59:11;24.30;99.90
26479;DHT22;14163;-26.142;27.992;2022-12-29T22:01:56;24.20;99.90
26479;DHT22;14163;-26.142;27.992;2022-12-29T22:04:41;24.10;99.90
26479;DHT22;14163;-26.142;27.992;2022-12-29T22:07:28;24.10;99.90
26479;DHT22;14163;-26.142;27.992;2022-12-29T22:10:13;24.10;99.90
26479;DHT22;14163;-26.142;27.992;2022-12-29T22:12:58;24.00;99.90
26479;DHT22;14163;-26.142;27.992;2022-12-29T22:15:28;24.00;99.90
26479;DHT22;14163;-26.142;27.992;2022-12-29T22:17:57;24.00;99.90
26479;DHT22;14163;-26.142;27.992;2022-12-29T22:20:26;24.00;99.90
26479;DHT22;14163;-26.142;27.992;2022-12-29T22:22:57;24.00;99.90
26479;DHT22;14163;-26.142;27.992;2022-12-29T22:25:25;24.00;99.90
26479;DHT22;14163;-26.142;27.992;2022-12-29T22:27:53;24.00;99.90
26479;DHT22;14163;-26.142;27.992;2022-12-29T22:30:22;24.00;99.90
26479;DHT22;14163;-26.142;27.992;2022-12-29T22:32:51;24.00;99.90
26479;DHT22;14163;-26.142;27.992;2022-12-29T22:35:19;24.00;99.90
26479;DHT22;14163;-26.142;27.992;2022-12-29T22:37:47;23.90;99.90
26479;DHT22;14163;-26.142;27.992;2022-12-29T22:40:18;23.90;99.90
26479;DHT22;14163;-26.142;27.992;2022-12-29T22:42:46;23.90;99.90
26479;DHT22;14163;-26.142;27.992;2022-12-29T22:45:14;23.80;99.90
26479;DHT22;14163;-26.142;27.992;2022-12-29T22:47:43;23.70;99.90
26479;DHT22;14163;-26.142;27.992;2022-12-29T22:50:11;23.70;99.90
26479;DHT22;14163;-26.142;27.992;2022-12-29T22:52:40;23.70;99.90
26479;DHT22;14163;-26.142;27.992;2022-12-29T22:55:09;23.70;99.90
26479;DHT22;14163;-26.142;27.992;2022-12-29T22:57:39;23.70;99.90
26479;DHT22;14163;-26.142;27.992;2022-12-29T23:00:08;23.70;99.90
26479;DHT22;14163;-26.142;27.992;2022-12-29T23:02:36;23.70;99.90
26479;DHT22;14163;-26.142;27.992;2022-12-29T23:05:05;23.70;99.90
26479;DHT22;14163;-26.142;27.992;2022-12-29T23:07:33;23.70;99.90
26479;DHT22;14163;-26.142;27.992;2022-12-29T23:10:02;23.70;99.90
26479;DHT22;14163;-26.142;27.992;2022-12-29T23:12:30;23.70;99.90
26479;DHT22;14163;-26.142;27.992;2022-12-29T23:15:01;23.60;99.90
26479;DHT22;14163;-26.142;27.992;2022-12-29T23:17:30;23.60;99.90
26479;DHT22;14163;-26.142;27.992;2022-12-29T23:19:59;23.70;99.90
26479;DHT22;14163;-26.142;27.992;2022-12-29T23:22:27;23.60;99.90
26479;DHT22;14163;-26.142;27.992;2022-12-29T23:24:56;23.60;99.90
26479;DHT22;14163;-26.142;27.992;2022-12-29T23:27:24;23.60;99.90
26479;DHT22;14163;-26.142;27.992;2022-12-29T23:29:53;23.60;99.90
26479;DHT22;14163;-26.142;27.992;2022-12-29T23:32:23;23.60;99.90
26479;DHT22;14163;-26.142;27.992;2022-12-29T23:34:52;23.60;99.90
26479;DHT22;14163;-26.142;27.992;2022-12-29T23:37:20;23.60;99.90
26479;DHT22;14163;-26.142;27.992;2022-12-29T23:39:49;23.70;99.90
26479;DHT22;14163;-26.142;27.992;2022-12-29T23:42:17;23.70;99.90
26479;DHT22;14163;-26.142;27.992;2022-12-29T23:44:45;23.70;99.90
26479;DHT22;14163;-26.142;27.992;2022-12-29T23:47:14;23.70;99.90
26479;DHT22;14163;-26.142;27.992;2022-12-29T23:49:44;23.70;99.90
26479;DHT22;14163;-26.142;27.992;2022-12-29T23:52:12;23.70;99.90
26479;DHT22;14163;-26.142;27.992;2022-12-29T23:54:41;23.70;99.90
26479;DHT22;14163;-26.142;27.992;2022-12-29T23:57:09;23.70;99.90
26479;DHT22;14163;-26.142;27.992;2022-12-29T23:59:37;23.60;99.90
